Time;durP1;ratioP1;P1;durP2;ratioP2;P2;SDS_P1;SDS_P2;PMS_P1;PMS_P2;Temp;Humidity;BMP_temperature;BMP_pressure;BME280_temperature;BME280_humidity;BME280_pressure;Samples;Min_cycle;Max_cycle;Signal;HPM_P1;HPM_P2
2022/07/09 00:00:09;;;;;;;9.70;5.07;;;;;;;15.77;100.00;102790.81;5023092;28;20044;-76
2022/07/09 00:02:36;;;;;;;8.48;4.60;;;;;;;15.75;100.00;102788.22;5006319;28;20412;-75
2022/07/09 00:05:02;;;;;;;7.55;4.93;;;;;;;15.73;100.00;102790.94;5023760;28;20559;-75
2022/07/09 00:07:28;;;;;;;8.18;4.65;;;;;;;15.73;100.00;102790.94;5024392;28;20640;-75
2022/07/09 00:09:53;;;;;;;13.85;5.28;;;;;;;15.73;100.00;102790.94;5023569;28;20120;-75
2022/07/09 00:12:19;;;;;;;6.70;4.40;;;;;;;15.74;100.00;102792.69;5024249;28;20525;-75
2022/07/09 00:14:44;;;;;;;7.45;3.85;;;;;;;15.76;100.00;102795.31;5023235;28;20031;-75
2022/07/09 00:17:10;;;;;;;8.25;4.47;;;;;;;15.77;100.00;102799.72;5024294;28;20142;-75
2022/07/09 00:19:36;;;;;;;7.25;4.40;;;;;;;15.79;100.00;102803.19;5024146;28;20033;-76
2022/07/09 00:22:02;;;;;;;9.00;4.43;;;;;;;15.79;100.00;102808.53;5023998;28;20503;-75
2022/07/09 00:24:30;;;;;;;7.15;3.92;;;;;;;15.78;100.00;102809.47;5024018;28;20040;-75
2022/07/09 00:26:56;;;;;;;10.38;4.63;;;;;;;15.79;100.00;102816.53;5023562;28;20049;-74
2022/07/09 00:29:21;;;;;;;7.82;4.43;;;;;;;15.78;100.00;102809.47;5024803;28;20103;-76
2022/07/09 00:31:47;;;;;;;7.50;4.28;;;;;;;15.78;100.00;102809.47;5022093;28;20057;-74
2022/07/09 00:34:13;;;;;;;8.48;4.35;;;;;;;15.79;100.00;102810.34;5023177;28;20068;-75
2022/07/09 00:36:38;;;;;;;8.65;3.88;;;;;;;15.79;100.00;102805.00;5023154;28;20033;-75
2022/07/09 00:39:04;;;;;;;6.35;4.18;;;;;;;15.79;100.00;102802.34;5022803;28;20045;-74
2022/07/09 00:41:30;;;;;;;9.13;4.07;;;;;;;15.79;100.00;102805.88;5022907;28;20067;-75
2022/07/09 00:43:55;;;;;;;6.10;3.30;;;;;;;15.81;100.00;102804.03;5024638;28;20056;-75
2022/07/09 00:46:21;;;;;;;8.40;4.15;;;;;;;15.82;100.00;102800.44;5005998;28;20506;-75
2022/07/09 00:48:47;;;;;;;7.10;3.83;;;;;;;15.85;100.00;102804.78;5006472;28;20029;-75
2022/07/09 00:51:14;;;;;;;7.85;3.55;;;;;;;15.87;100.00;102794.91;5005304;28;20892;-75
2022/07/09 00:53:40;;;;;;;3.72;2.80;;;;;;;15.89;100.00;102801.94;5022683;28;20575;-76
2022/07/09 00:56:07;;;;;;;5.63;3.30;;;;;;;15.91;100.00;102795.66;5004830;28;20045;-76
2022/07/09 00:58:33;;;;;;;7.32;3.17;;;;;;;15.93;100.00;102799.19;5023895;28;20053;-76
2022/07/09 01:00:59;;;;;;;6.47;2.95;;;;;;;15.95;100.00;102790.19;5000413;28;20178;-75
2022/07/09 01:03:25;;;;;;;8.30;3.28;;;;;;;15.97;100.00;102790.13;5024267;28;20053;-75
2022/07/09 01:05:50;;;;;;;7.97;3.35;;;;;;;15.96;100.00;102786.56;5017930;28;20491;-75
2022/07/09 01:08:16;;;;;;;5.95;3.38;;;;;;;15.98;100.00;102782.06;5017082;28;20032;-75
2022/07/09 01:10:42;;;;;;;8.43;2.83;;;;;;;15.99;100.00;102790.94;5023706;28;20025;-75
2022/07/09 01:13:07;;;;;;;6.20;3.00;;;;;;;16.00;100.00;102782.00;5027091;28;20029;-75
2022/07/09 01:15:33;;;;;;;4.60;2.92;;;;;;;16.00;100.00;102773.97;5021907;28;20295;-74
2022/07/09 01:17:59;;;;;;;4.43;2.90;;;;;;;16.00;100.00;102774.84;5027457;28;20048;-75
2022/07/09 01:20:26;;;;;;;4.88;2.60;;;;;;;16.01;100.00;102765.03;5025781;28;20048;-74
2022/07/09 01:22:52;;;;;;;4.40;2.60;;;;;;;16.02;100.00;102766.78;5027465;28;20036;-74
2022/07/09 01:25:18;;;;;;;6.70;2.88;;;;;;;16.03;100.00;102771.22;5021691;28;20386;-74
2022/07/09 01:27:44;;;;;;;4.85;2.20;;;;;;;16.05;100.00;102771.13;5021508;28;20176;-75
2022/07/09 01:30:10;;;;;;;6.38;2.30;;;;;;;16.05;100.00;102765.78;4987167;28;20037;-74
2022/07/09 01:32:36;;;;;;;4.10;2.20;;;;;;;16.06;100.00;102770.22;5027559;28;20033;-74
2022/07/09 01:35:02;;;;;;;4.50;2.22;;;;;;;16.06;100.00;102759.53;5026951;28;20025;-74
2022/07/09 01:37:27;;;;;;;3.17;2.28;;;;;;;16.07;100.00;102756.78;5027011;28;20125;-74
2022/07/09 01:39:53;;;;;;;4.28;2.15;;;;;;;16.07;100.00;102758.59;5025963;28;20104;-74
2022/07/09 01:42:19;;;;;;;4.47;2.22;;;;;;;16.08;100.00;102755.84;5026496;28;20036;-74
2022/07/09 01:44:46;;;;;;;3.92;2.00;;;;;;;16.08;100.00;102761.19;5027061;28;20071;-74
2022/07/09 01:47:14;;;;;;;3.83;2.45;;;;;;;16.06;100.00;102749.69;5025730;28;20082;-74
2022/07/09 01:49:41;;;;;;;3.13;1.90;;;;;;;16.06;100.00;102743.50;5025856;28;20037;-75
2022/07/09 01:52:07;;;;;;;5.93;1.90;;;;;;;16.05;100.00;102747.06;5025605;28;20694;-74
2022/07/09 01:54:33;;;;;;;3.30;1.75;;;;;;;16.03;100.00;102739.16;5025174;28;20171;-74
2022/07/09 01:56:58;;;;;;;4.43;2.33;;;;;;;16.04;100.00;102740.00;5026962;28;20659;-75
2022/07/09 01:59:24;;;;;;;6.82;2.72;;;;;;;16.00;100.00;102734.78;5026537;28;20045;-75
2022/07/09 02:01:50;;;;;;;3.47;2.92;;;;;;;16.00;100.00;102739.25;5026123;28;20029;-75
2022/07/09 02:04:15;;;;;;;5.28;2.75;;;;;;;15.99;100.00;102737.50;5025762;28;20086;-75
2022/07/09 02:06:41;;;;;;;4.93;3.00;;;;;;;15.97;100.00;102739.38;5026205;28;20042;-74
2022/07/09 02:09:06;;;;;;;5.85;3.03;;;;;;;15.96;100.00;102729.63;5026980;28;20145;-74
2022/07/09 02:11:32;;;;;;;6.13;3.63;;;;;;;15.94;100.00;102728.78;5025479;28;20430;-74
2022/07/09 02:13:58;;;;;;;5.78;3.47;;;;;;;15.93;100.00;102721.72;5026884;28;20333;-74
2022/07/09 02:16:24;;;;;;;7.20;3.40;;;;;;;15.92;100.00;102728.88;5026314;28;20049;-75
2022/07/09 02:18:50;;;;;;;5.47;3.13;;;;;;;15.92;100.00;102725.31;5003171;28;20064;-75
2022/07/09 02:21:16;;;;;;;6.68;3.30;;;;;;;15.92;100.00;102725.31;5024983;28;20047;-75
2022/07/09 02:23:42;;;;;;;4.50;2.80;;;;;;;15.92;100.00;102725.31;5026635;28;20045;-75
2022/07/09 02:26:08;;;;;;;7.53;2.63;;;;;;;15.93;100.00;102713.72;5026877;28;20035;-75
2022/07/09 02:28:33;;;;;;;3.83;2.70;;;;;;;15.91;100.00;102713.72;5025784;28;20033;-76
2022/07/09 02:30:59;;;;;;;5.35;3.22;;;;;;;15.92;100.00;102712.84;5026462;28;20094;-76
2022/07/09 02:33:25;;;;;;;3.30;2.42;;;;;;;15.93;100.00;102711.03;5026373;28;20033;-75
2022/07/09 02:35:50;;;;;;;6.15;2.85;;;;;;;15.91;100.00;102707.53;5023961;28;20455;-75
2022/07/09 02:38:16;;;;;;;4.75;2.97;;;;;;;15.92;100.00;102709.31;5025215;28;20026;-76
2022/07/09 02:40:42;;;;;;;5.20;3.00;;;;;;;15.92;100.00;102711.97;5023840;28;20028;-76
2022/07/09 02:43:07;;;;;;;5.05;3.05;;;;;;;15.93;100.00;102700.34;5025906;28;20037;-76
2022/07/09 02:45:33;;;;;;;5.53;3.03;;;;;;;15.92;100.00;102698.63;5025324;28;20037;-75
2022/07/09 02:48:00;;;;;;;7.57;3.20;;;;;;;15.91;100.00;102702.19;5024500;28;20087;-74
2022/07/09 02:50:26;;;;;;;4.95;3.13;;;;;;;15.89;100.00;102700.44;5024476;28;20642;-75
2022/07/09 02:52:52;;;;;;;6.18;3.05;;;;;;;15.89;100.00;102705.78;4991371;28;20037;-74
2022/07/09 02:55:17;;;;;;;5.45;3.22;;;;;;;15.86;100.00;102700.56;5026436;28;20715;-75
2022/07/09 02:57:43;;;;;;;4.88;2.80;;;;;;;15.85;100.00;102698.81;5022441;28;20115;-75
2022/07/09 03:00:08;;;;;;;7.03;3.35;;;;;;;15.83;100.00;102703.34;5026204;28;20034;-75
2022/07/09 03:02:34;;;;;;;6.28;3.10;;;;;;;15.82;100.00;102700.72;5024881;28;20088;-75
2022/07/09 03:05:00;;;;;;;4.95;3.00;;;;;;;15.80;100.00;102699.94;5024214;28;20645;-75
2022/07/09 03:07:29;;;;;;;8.43;3.15;;;;;;;15.78;100.00;102694.66;5026081;28;20495;-75
2022/07/09 03:09:55;;;;;;;6.22;3.00;;;;;;;15.78;100.00;102688.41;5025948;28;20040;-75
2022/07/09 03:12:20;;;;;;;7.88;3.50;;;;;;;15.76;100.00;102696.50;5024644;28;20503;-75
2022/07/09 03:14:45;;;;;;;8.18;3.50;;;;;;;15.73;100.00;102686.81;5025364;28;20029;-75
2022/07/09 03:17:11;;;;;;;7.85;3.65;;;;;;;15.73;100.00;102685.94;5035943;28;20053;-76
2022/07/09 03:19:37;;;;;;;10.30;3.35;;;;;;;15.71;100.00;102680.66;5024921;28;20170;-75
2022/07/09 03:22:02;;;;;;;5.57;3.50;;;;;;;15.70;100.00;102686.06;5024861;28;20090;-75
2022/07/09 03:24:28;;;;;;;5.72;3.50;;;;;;;15.69;100.00;102679.00;5019093;28;20091;-75
2022/07/09 03:26:53;;;;;;;5.40;3.78;;;;;;;15.67;100.00;102667.47;5025168;28;20566;-75
2022/07/09 03:29:20;;;;;;;7.50;4.00;;;;;;;15.65;100.00;102667.56;5019237;28;20108;-75
2022/07/09 03:31:45;;;;;;;8.48;3.80;;;;;;;15.64;100.00;102665.81;5024677;28;20129;-75
2022/07/09 03:34:11;;;;;;;5.63;3.00;;;;;;;15.66;100.00;102665.72;5025247;28;20033;-75
2022/07/09 03:36:36;;;;;;;6.65;3.70;;;;;;;15.65;100.00;102664.00;5024119;28;20185;-75
2022/07/09 03:39:02;;;;;;;6.68;3.50;;;;;;;15.65;100.00;102664.88;5018976;28;20045;-75
2022/07/09 03:41:27;;;;;;;6.05;2.97;;;;;;;15.66;100.00;102668.41;5024476;28;20112;-74
2022/07/09 03:43:53;;;;;;;6.45;3.55;;;;;;;15.66;100.00;102663.94;5023238;28;20049;-75
2022/07/09 03:46:18;;;;;;;5.32;3.05;;;;;;;15.67;100.00;102662.13;5007011;28;20372;-75
2022/07/09 03:48:44;;;;;;;5.50;3.40;;;;;;;15.69;100.00;102660.28;5006868;28;20033;-75
2022/07/09 03:51:10;;;;;;;4.53;2.92;;;;;;;15.69;100.00;102668.31;5023750;28;20033;-75
2022/07/09 03:53:35;;;;;;;5.80;3.03;;;;;;;15.70;100.00;102662.03;5024539;28;20037;-75
2022/07/09 03:56:01;;;;;;;8.85;3.60;;;;;;;15.70;100.00;102657.53;5024677;28;20064;-75
2022/07/09 03:58:26;;;;;;;5.40;3.25;;;;;;;15.70;100.00;102662.03;5024443;28;20145;-74
2022/07/09 04:00:53;;;;;;;4.55;2.75;;;;;;;15.69;100.00;102657.63;5024267;28;20033;-75
2022/07/09 04:03:19;;;;;;;4.80;2.90;;;;;;;15.69;100.00;102655.81;5024622;28;20029;-74
2022/07/09 04:05:44;;;;;;;4.82;3.00;;;;;;;15.69;100.00;102660.28;5000870;28;20037;-75
2022/07/09 04:08:10;;;;;;;5.05;2.80;;;;;;;15.70;100.00;102651.34;4990012;28;20033;-76
2022/07/09 04:10:36;;;;;;;5.35;3.22;;;;;;;15.69;100.00;102650.47;5018193;28;20063;-76
2022/07/09 04:13:02;;;;;;;4.43;2.80;;;;;;;15.70;100.00;102646.00;5018560;28;20037;-76
2022/07/09 04:15:27;;;;;;;4.45;2.17;;;;;;;15.70;100.00;102654.03;5024302;28;20053;-74
2022/07/09 04:17:53;;;;;;;6.53;2.72;;;;;;;15.69;100.00;102653.13;5022778;28;20040;-75
2022/07/09 04:20:19;;;;;;;4.00;2.67;;;;;;;15.69;100.00;102647.81;5006427;28;20064;-75
2022/07/09 04:22:45;;;;;;;8.85;2.75;;;;;;;15.70;100.00;102646.88;5023460;28;20033;-75
2022/07/09 04:25:10;;;;;;;4.88;2.40;;;;;;;15.72;100.00;102653.03;5023397;28;20029;-75
2022/07/09 04:27:38;;;;;;;5.13;2.67;;;;;;;15.73;100.00;102660.13;5024457;28;20071;-75
2022/07/09 04:30:09;;;;;;;4.97;2.75;;;;;;;15.77;100.00;102651.97;5017814;28;20033;-75
2022/07/09 04:32:34;;;;;;;5.07;2.35;;;;;;;15.80;100.00;102655.38;5002347;28;20045;-76
2022/07/09 04:35:00;;;;;;;4.22;2.33;;;;;;;15.82;100.00;102652.66;5022414;28;20099;-75
2022/07/09 04:37:25;;;;;;;4.90;2.78;;;;;;;15.83;100.00;102662.41;5006383;28;20036;-75
2022/07/09 04:39:51;;;;;;;4.95;2.60;;;;;;;15.85;100.00;102663.25;5023596;28;20024;-75
2022/07/09 04:42:17;;;;;;;5.68;2.60;;;;;;;15.86;100.00;102671.19;5017871;28;20051;-75
2022/07/09 04:44:43;;;;;;;5.03;3.10;;;;;;;15.87;100.00;102667.56;5023618;28;20395;-76
2022/07/09 04:47:11;;;;;;;5.18;2.80;;;;;;;15.88;100.00;102674.69;5016788;28;20075;-75
2022/07/09 04:49:36;;;;;;;5.32;2.67;;;;;;;15.89;100.00;102673.75;5022426;28;20029;-75
2022/07/09 04:52:02;;;;;;;3.03;2.30;;;;;;;15.91;100.00;102675.47;5022405;28;20064;-75
2022/07/09 04:54:28;;;;;;;4.78;2.70;;;;;;;15.93;100.00;102676.31;5024431;28;20475;-75
2022/07/09 04:56:53;;;;;;;5.60;2.70;;;;;;;15.95;100.00;102685.16;5023586;28;20052;-74
2022/07/09 04:59:19;;;;;;;4.75;2.22;;;;;;;15.97;100.00;102680.63;5023281;28;20156;-75
2022/07/09 05:01:44;;;;;;;6.32;2.50;;;;;;;16.00;100.00;102675.13;5023887;28;20120;-75
2022/07/09 05:04:10;;;;;;;4.20;2.60;;;;;;;16.02;100.00;102673.31;5022955;28;20057;-75
2022/07/09 05:06:35;;;;;;;3.05;2.20;;;;;;;16.05;100.00;102672.28;5024021;28;20075;-75
2022/07/09 05:09:04;;;;;;;6.45;2.35;;;;;;;16.09;100.00;102674.78;5021938;28;20030;-75
2022/07/09 05:11:30;;;;;;;3.97;2.53;;;;;;;16.13;100.00;102670.19;5023865;28;20140;-75
2022/07/09 05:13:56;;;;;;;3.20;2.28;;;;;;;16.16;100.00;102672.72;5005764;28;20389;-75
2022/07/09 05:16:21;;;;;;;4.50;2.25;;;;;;;16.19;100.00;102669.97;5021928;28;20186;-75
2022/07/09 05:18:50;;;;;;;3.58;2.35;;;;;;;16.22;100.00;102661.81;5024051;28;20036;-76
2022/07/09 05:21:16;;;;;;;4.78;2.75;;;;;;;16.26;100.00;102651.84;5016821;28;20037;-75
2022/07/09 05:23:42;;;;;;;4.40;2.47;;;;;;;16.27;100.00;102656.25;5017543;28;20502;-75
2022/07/09 05:26:07;;;;;;;3.58;2.20;;;;;;;16.30;100.00;102656.16;5021409;28;20029;-75
2022/07/09 05:28:33;;;;;;;3.03;2.00;;;;;;;16.33;100.00;102652.50;5023382;28;20044;-75
2022/07/09 05:31:02;;;;;;;4.15;2.63;;;;;;;16.35;100.00;102651.47;5023235;28;20044;-75
2022/07/09 05:33:27;;;;;;;2.88;2.22;;;;;;;16.38;100.00;102659.38;5022512;28;20060;-76
2022/07/09 05:35:53;;;;;;;4.30;2.60;;;;;;;16.42;100.00;102655.66;5017833;28;20164;-74
2022/07/09 05:38:18;;;;;;;3.58;2.10;;;;;;;16.47;100.00;102659.91;5022240;28;20076;-75
2022/07/09 05:40:44;;;;;;;4.25;2.03;;;;;;;16.51;100.00;102664.22;5005575;28;20045;-74
2022/07/09 05:43:10;;;;;;;4.15;2.53;;;;;;;16.54;100.00;102661.41;5023393;28;20040;-74
2022/07/09 05:45:35;;;;;;;2.92;2.00;;;;;;;16.58;100.00;102662.13;5005106;28;20115;-74
2022/07/09 05:48:01;;;;;;;3.08;1.95;;;;;;;16.61;100.00;102665.56;5021864;28;20041;-74
2022/07/09 05:50:29;;;;;;;3.20;2.22;;;;;;;16.66;100.00;102657.31;5022909;28;20068;-74
2022/07/09 05:52:55;;;;;;;2.75;2.13;;;;;;;16.69;100.00;102668.75;5023178;28;20053;-75
2022/07/09 05:55:20;;;;;;;4.20;2.30;;;;;;;16.73;100.00;102663.31;5023015;28;20358;-75
2022/07/09 05:57:46;;;;;;;4.25;2.13;;;;;;;16.77;100.00;102664.91;5024519;28;20045;-74
2022/07/09 06:00:12;;;;;;;2.80;2.20;;;;;;;16.82;100.00;102668.25;5025411;28;20055;-75
2022/07/09 06:02:37;;;;;;;4.13;2.35;;;;;;;16.88;100.00;102661.78;5025751;28;20033;-74
2022/07/09 06:05:06;;;;;;;2.30;1.90;;;;;;;16.92;100.00;102658.91;5025987;28;20036;-75
2022/07/09 06:07:32;;;;;;;3.25;2.05;;;;;;;16.96;100.00;102667.66;5026172;28;20036;-75
2022/07/09 06:09:57;;;;;;;3.70;2.00;;;;;;;17.00;100.00;102668.38;5027012;28;21006;-74
2022/07/09 06:12:23;;;;;;;3.00;1.80;;;;;;;17.03;100.00;102668.28;5027062;28;20079;-75
2022/07/09 06:14:49;;;;;;;3.40;2.05;;;;;;;17.05;100.00;102663.75;5026397;28;20079;-75
2022/07/09 06:17:14;;;;;;;1.80;1.60;;;;;;;17.07;100.00;102656.50;5026617;28;20128;-74
2022/07/09 06:19:40;;;;;;;4.20;1.90;;;;;;;17.08;100.00;102666.28;5024623;28;20041;-75
2022/07/09 06:22:05;;;;;;;4.80;1.60;;;;;;;17.10;100.00;102656.34;5008522;28;20046;-75
2022/07/09 06:24:31;;;;;;;2.72;1.48;;;;;;;17.13;100.00;102658.91;5023939;28;20813;-74
2022/07/09 06:26:57;;;;;;;6.30;1.83;;;;;;;17.17;100.00;102649.78;5008573;28;20033;-75
2022/07/09 06:29:22;;;;;;;3.45;1.80;;;;;;;17.20;100.00;102646.13;5026051;28;20601;-75
2022/07/09 06:31:48;;;;;;;1.85;1.52;;;;;;;17.21;100.00;102646.06;4986815;28;20152;-75
2022/07/09 06:34:13;;;;;;;4.28;2.03;;;;;;;17.26;100.00;102645.00;5027039;28;20033;-75
2022/07/09 06:36:40;;;;;;;2.60;1.70;;;;;;;17.31;100.00;102642.94;5025566;28;20044;-75
2022/07/09 06:41:51;;;;;;;2.25;1.58;;;;;;;17.42;100.00;102647.84;5005737;28;20512;-75
2022/07/09 06:44:17;;;;;;;3.03;1.60;;;;;;;17.46;100.00;102647.63;5020666;28;20033;-75
2022/07/09 06:46:43;;;;;;;2.05;1.60;;;;;;;17.55;100.00;102653.47;5036567;28;20032;-75
2022/07/09 06:49:11;;;;;;;2.53;1.38;;;;;;;17.60;100.00;102654.13;5025301;28;20063;-75
2022/07/09 06:51:37;;;;;;;2.17;1.30;;;;;;;17.68;100.00;102656.44;5026105;28;20029;-76
2022/07/09 06:54:02;;;;;;;2.88;1.50;;;;;;;17.70;100.00;102658.09;5035803;28;20483;-75
2022/07/09 06:56:28;;;;;;;5.32;1.60;;;;;;;17.69;100.00;102656.38;5025976;28;20056;-75
2022/07/09 06:58:54;;;;;;;2.67;1.30;;;;;;;17.68;100.00;102660.00;5002291;28;20053;-75
2022/07/09 07:01:20;;;;;;;1.48;1.17;;;;;;;17.66;100.00;102661.91;5025237;28;20163;-76
2022/07/09 07:03:45;;;;;;;2.10;1.00;;;;;;;17.63;100.00;102659.34;5025819;28;20033;-74
2022/07/09 07:06:11;;;;;;;1.90;1.38;;;;;;;17.62;100.00;102657.59;5024245;28;20034;-75
2022/07/09 07:08:39;;;;;;;1.77;1.13;;;;;;;17.62;100.00;102666.53;5003840;28;20139;-75
2022/07/09 07:11:04;;;;;;;3.92;1.33;;;;;;;17.61;100.00;102663.91;5025452;28;20549;-74
2022/07/09 07:13:30;;;;;;;1.83;1.38;;;;;;;17.61;100.00;102663.91;5026184;28;20277;-75
2022/07/09 07:15:56;;;;;;;2.83;1.10;;;;;;;17.63;100.00;102662.03;5024812;28;20041;-75
2022/07/09 07:18:21;;;;;;;1.77;1.00;;;;;;;17.63;100.00;102665.56;5026003;28;20033;-75
2022/07/09 07:20:47;;;;;;;2.08;1.08;;;;;;;17.60;100.00;102665.69;5026151;28;20046;-76
2022/07/09 07:23:15;;;;;;;2.00;1.13;;;;;;;17.59;100.00;102672.00;5025185;28;20056;-75
2022/07/09 07:25:40;;;;;;;3.60;1.10;;;;;;;17.59;100.00;102680.03;5026049;28;20044;-76
2022/07/09 07:28:06;;;;;;;2.15;1.05;;;;;;;17.61;100.00;102674.63;5025120;28;20037;-74
2022/07/09 07:30:32;;;;;;;4.50;1.20;;;;;;;17.66;100.00;102672.59;5025661;28;20598;-74
2022/07/09 07:33:01;;;;;;;1.48;1.13;;;;;;;17.63;100.00;102673.63;5023754;28;20598;-73
2022/07/09 07:35:27;;;;;;;2.78;1.17;;;;;;;17.64;100.00;102671.78;5023800;28;20136;-74
2022/07/09 07:37:52;;;;;;;3.35;1.30;;;;;;;17.66;100.00;102675.28;5024915;28;20187;-74
2022/07/09 07:40:18;;;;;;;1.50;1.00;;;;;;;17.75;100.00;102674.84;5023127;28;20040;-75
2022/07/09 07:42:43;;;;;;;1.98;0.98;;;;;;;17.85;100.00;102674.38;5023778;28;20037;-74
2022/07/09 07:45:10;;;;;;;4.72;1.10;;;;;;;17.91;100.00;102666.06;5024428;28;20129;-75
2022/07/09 07:47:35;;;;;;;2.60;1.00;;;;;;;17.93;100.00;102666.88;5023935;28;20120;-75
2022/07/09 07:50:01;;;;;;;1.85;0.98;;;;;;;18.01;100.00;102680.78;5025217;28;20029;-76
2022/07/09 07:52:26;;;;;;;1.00;0.95;;;;;;;18.03;100.00;102678.88;5023739;28;20131;-74
2022/07/09 07:54:52;;;;;;;0.88;0.80;;;;;;;18.06;100.00;102677.91;5019371;28;20033;-74
2022/07/09 07:57:18;;;;;;;3.50;1.20;;;;;;;18.16;100.00;102678.31;5024117;28;20042;-74
2022/07/09 07:59:51;;;;;;;2.25;1.00;;;;;;;18.25;100.00;102683.22;5026093;28;20029;-76
2022/07/09 08:02:16;;;;;;;4.18;1.10;;;;;;;18.25;100.00;102685.91;5022009;28;20107;-75
2022/07/09 08:04:42;;;;;;;2.72;0.90;;;;;;;18.20;100.00;102677.25;5024630;28;20036;-74
2022/07/09 08:07:07;;;;;;;3.33;1.10;;;;;;;18.28;100.00;102683.09;5024982;28;20657;-75
2022/07/09 08:09:35;;;;;;;1.48;0.88;;;;;;;18.45;100.00;102681.38;5024339;28;20042;-75
2022/07/09 08:12:01;;;;;;;2.20;1.10;;;;;;;18.75;100.00;102680.78;5023274;28;20434;-75
2022/07/09 08:14:26;;;;;;;1.92;1.08;;;;;;;19.07;100.00;102680.06;5024591;28;20059;-74
2022/07/09 08:16:55;;;;;;;1.35;1.10;;;;;;;19.27;100.00;102674.50;5024410;28;20053;-74
2022/07/09 08:19:20;;;;;;;2.83;1.17;;;;;;;19.56;100.00;102673.88;5018118;28;20448;-75
2022/07/09 08:21:46;;;;;;;1.77;0.90;;;;;;;19.84;99.91;102679.53;5024894;28;20045;-74
2022/07/09 08:24:11;;;;;;;1.42;1.00;;;;;;;19.89;97.88;102678.31;5023662;28;20063;-74
2022/07/09 08:26:37;;;;;;;1.58;0.90;;;;;;;20.00;97.44;102679.56;5023451;28;20064;-74
2022/07/09 08:29:03;;;;;;;3.45;1.00;;;;;;;20.19;97.00;102685.63;5023090;28;20037;-75
2022/07/09 08:31:31;;;;;;;4.88;1.33;;;;;;;20.30;94.75;102685.00;5002040;28;20030;-74
2022/07/09 08:33:57;;;;;;;1.88;0.90;;;;;;;20.31;95.05;102685.84;5024266;28;20033;-75
2022/07/09 08:36:22;;;;;;;1.73;0.90;;;;;;;20.52;95.26;102680.22;5023892;28;20045;-75
2022/07/09 08:38:49;;;;;;;4.50;0.90;;;;;;;20.61;94.26;102675.13;5023026;28;20455;-75
2022/07/09 08:41:19;;;;;;;0.80;0.70;;;;;;;20.43;92.90;102670.84;5023351;28;20032;-76
2022/07/09 08:43:51;;;;;;;1.15;0.85;;;;;;;20.18;91.76;102678.53;5022702;28;20060;-74
2022/07/09 08:46:18;;;;;;;2.47;0.93;;;;;;;20.03;93.20;102679.38;5024613;28;20044;-74
2022/07/09 08:48:44;;;;;;;2.17;0.90;;;;;;;20.00;93.74;102669.66;5021295;28;20041;-75
2022/07/09 08:51:15;;;;;;;1.35;0.80;;;;;;;20.11;91.53;102677.16;5024950;28;20099;-79
2022/07/09 08:53:43;;;;;;;1.35;1.00;;;;;;;20.16;91.94;102669.66;5023537;28;20044;-75
2022/07/09 08:56:09;;;;;;;2.00;0.70;;;;;;;20.32;92.71;102674.16;5025060;28;20055;-74
2022/07/09 08:58:35;;;;;;;0.70;0.70;;;;;;;20.22;90.84;102684.59;5022426;28;20037;-74
2022/07/09 09:01:00;;;;;;;0.70;0.70;;;;;;;20.05;90.69;102686.41;5021881;28;20202;-75
2022/07/09 09:03:26;;;;;;;2.08;0.85;;;;;;;19.91;91.08;102684.50;5022761;28;20029;-74
2022/07/09 09:06:04;;;;;;;1.88;0.75;;;;;;;19.81;91.25;102683.25;5024122;28;20064;-74
2022/07/09 09:08:41;;;;;;;0.82;0.80;;;;;;;19.81;91.03;102680.56;5024708;28;20096;-73
2022/07/09 09:11:13;;;;;;;1.67;0.80;;;;;;;19.72;89.54;102681.09;5024289;28;20080;-76
2022/07/09 09:13:46;;;;;;;6.88;1.00;;;;;;;19.54;89.46;102676.66;4989709;28;20052;-75
2022/07/09 09:16:13;;;;;;;6.05;1.05;;;;;;;19.51;91.01;102675.94;5016879;28;20049;-74
2022/07/09 09:18:42;;;;;;;3.20;1.00;;;;;;;19.64;90.64;102674.31;5024738;28;20060;-77
2022/07/09 09:21:09;;;;;;;1.40;0.90;;;;;;;19.72;90.74;102684.63;5005192;28;20158;-75
2022/07/09 09:23:46;;;;;;;3.75;1.00;;;;;;;19.91;88.83;102684.50;5023817;28;20061;-74
2022/07/09 09:26:16;;;;;;;3.03;1.20;;;;;;;19.90;89.98;102688.13;5017050;28;20037;-76
2022/07/09 09:28:51;;;;;;;1.77;0.90;;;;;;;19.80;89.19;102684.22;5024321;28;20050;-76
2022/07/09 09:31:25;;;;;;;0.80;0.80;;;;;;;19.80;87.37;102689.59;5023538;28;20507;-79
2022/07/09 09:33:53;;;;;;;2.22;1.20;;;;;;;19.66;88.38;102687.66;5028769;28;20098;-77
2022/07/09 09:36:33;;;;;;;3.15;1.10;;;;;;;19.76;87.90;102696.06;5027191;28;20033;-75
2022/07/09 09:39:07;;;;;;;;;;;;;;;19.92;87.51;102698.78;5005742;28;20513;-76
2022/07/09 09:41:33;;;;;;;4.72;1.00;;;;;;;19.89;87.86;102699.81;5025557;28;20026;-77
2022/07/09 09:44:05;;;;;;;1.25;0.85;;;;;;;19.90;87.93;102696.19;5025970;28;20119;-78
2022/07/09 09:46:37;;;;;;;1.45;1.02;;;;;;;19.98;87.19;102689.56;5027096;28;20118;-77
2022/07/09 09:49:09;;;;;;;1.30;0.90;;;;;;;20.14;87.39;102695.78;5037824;28;20034;-75
2022/07/09 09:51:36;;;;;;;2.13;1.08;;;;;;;20.26;86.52;102699.56;5025963;28;20391;-77
2022/07/09 09:54:03;;;;;;;4.07;1.00;;;;;;;20.35;85.83;102691.00;5025304;28;20059;-77
2022/07/09 09:56:33;;;;;;;5.18;1.42;;;;;;;20.35;82.75;102691.00;5027204;28;20582;-79
2022/07/09 09:59:01;;;;;;;3.63;1.30;;;;;;;20.26;83.34;102696.03;4988714;28;20029;-76
2022/07/09 10:01:29;;;;;;;3.63;1.20;;;;;;;20.15;84.29;102691.28;5027253;28;20025;-75
2022/07/09 10:03:56;;;;;;;1.98;0.90;;;;;;;20.04;84.10;102698.13;5027105;28;20058;-77
2022/07/09 10:06:22;;;;;;;3.03;1.00;;;;;;;20.02;84.56;102704.53;5021603;28;20036;-76
2022/07/09 10:08:48;;;;;;;2.47;0.93;;;;;;;20.05;84.10;102707.06;5009864;28;20410;-79
2022/07/09 10:11:13;;;;;;;1.77;0.90;;;;;;;20.05;84.12;102704.38;5004354;28;20041;-76
2022/07/09 10:13:56;;;;;;;1.55;1.10;;;;;;;20.11;81.78;102703.16;5025874;28;20086;-77
2022/07/09 10:16:51;;;;;;;;;;;;;;;20.13;82.60;102711.97;5025933;28;20671;-80
2022/07/09 10:19:30;;;;;;;2.88;1.27;;;;;;;20.09;81.60;102705.91;5025246;28;19928;-76
2022/07/09 10:21:57;;;;;;;2.63;1.20;;;;;;;19.78;83.33;102718.38;5028037;28;21151;-76
2022/07/09 10:24:28;;;;;;;5.35;1.30;;;;;;;19.29;84.61;102733.50;5027185;28;20045;-76
2022/07/09 10:27:09;;;;;;;1.73;1.02;;;;;;;19.00;85.96;102738.53;5027900;28;20102;-74
2022/07/09 10:29:36;;;;;;;2.22;1.30;;;;;;;18.86;86.31;102733.88;5021363;28;20064;-76
2022/07/09 10:32:02;;;;;;;1.95;1.05;;;;;;;18.63;86.96;102743.09;5026929;28;20042;-79
2022/07/09 10:34:30;;;;;;;4.18;1.00;;;;;;;18.48;87.11;102737.53;5004631;28;20037;-76
2022/07/09 10:37:05;;;;;;;2.58;1.40;;;;;;;18.36;86.52;102740.81;5020814;28;20504;-81
2022/07/09 10:39:32;;;;;;;3.92;1.23;;;;;;;18.30;87.57;102733.97;5027640;28;20029;-83
2022/07/09 10:42:05;;;;;;;4.22;1.48;;;;;;;18.17;86.52;102753.31;5008231;28;20138;-80
2022/07/09 10:44:36;;;;;;;3.70;1.23;;;;;;;18.04;86.92;102761.00;5026832;28;20111;-75
2022/07/09 10:47:03;;;;;;;5.30;1.23;;;;;;;18.00;87.09;102748.72;5025335;28;20045;-76
2022/07/09 10:49:29;;;;;;;2.58;1.20;;;;;;;17.96;86.58;102763.19;5024550;28;20483;-76
2022/07/09 10:51:58;;;;;;;3.15;1.25;;;;;;;17.91;86.05;102755.34;5026373;28;20037;-79
2022/07/09 10:54:26;;;;;;;3.50;0.90;;;;;;;17.90;84.72;102759.00;5027164;28;20504;-77
2022/07/09 10:56:55;;;;;;;2.17;0.70;;;;;;;17.95;84.19;102758.75;5024999;28;20041;-79
2022/07/09 10:59:22;;;;;;;3.13;0.90;;;;;;;17.96;83.64;102768.53;5004222;28;20120;-76
2022/07/09 11:01:48;;;;;;;3.53;0.85;;;;;;;17.99;82.80;102767.53;5025608;28;20027;-80
2022/07/09 11:04:24;;;;;;;2.47;0.88;;;;;;;18.00;81.95;102770.16;5018800;28;20120;-77
2022/07/09 11:06:49;;;;;;;0.93;0.60;;;;;;;18.08;82.22;102767.13;5026790;28;20082;-82
2022/07/09 11:09:16;;;;;;;1.35;0.70;;;;;;;18.07;80.23;102764.53;5025782;28;20444;-77
2022/07/09 11:11:43;;;;;;;3.03;0.70;;;;;;;18.03;81.07;102772.66;5024624;28;20037;-79
2022/07/09 11:14:09;;;;;;;3.88;0.90;;;;;;;18.18;80.63;102772.91;5026243;28;20029;-74
2022/07/09 11:16:35;;;;;;;2.03;0.60;;;;;;;18.22;78.24;102774.53;5026056;28;20184;-75
2022/07/09 11:19:15;;;;;;;2.75;0.90;;;;;;;18.20;77.64;102776.41;5003673;28;20123;-75